createdAt,value
2018-04-06T00:04:26.340Z,"    0"
2018-04-06T00:09:26.048Z,"    0"
2018-04-06T00:14:21.936Z,"    0"
2018-04-06T00:19:18.380Z,"    0"
2018-04-06T00:24:18.557Z,"    0"
2018-04-06T00:29:15.150Z,"    0"
2018-04-06T00:34:11.836Z,"    0"
2018-04-06T00:39:07.206Z,"    0"
2018-04-06T00:44:02.990Z,"    0"
2018-04-06T00:49:01.455Z,"    0"
2018-04-06T00:54:01.615Z,"    0"
2018-04-06T00:59:01.072Z,"    0"
2018-04-06T01:03:56.000Z,"    0"
2018-04-06T01:08:52.954Z,"    0"
2018-04-06T01:13:49.671Z,"    0"
2018-04-06T01:18:49.029Z,"    0"
2018-04-06T01:23:45.059Z,"    0"
2018-04-06T01:28:40.556Z,"    0"
2018-04-06T01:33:41.217Z,"    0"
2018-04-06T01:38:35.965Z,"    0"
2018-04-06T01:43:31.815Z,"    0"
2018-04-06T01:48:28.366Z,"    0"
2018-04-06T01:53:24.587Z,"    0"
2018-04-06T01:58:21.098Z,"    0"
2018-04-06T02:03:16.484Z,"    0"
2018-04-06T02:08:17.091Z,"    0"
2018-04-06T02:13:15.628Z,"    0"
2018-04-06T02:18:10.233Z,"    0"
2018-04-06T02:23:06.725Z,"    0"
2018-04-06T02:28:08.025Z,"    0"
2018-04-06T02:33:07.474Z,"    0"
2018-04-06T02:38:01.730Z,"    0"
2018-04-06T02:42:58.848Z,"    0"
2018-04-06T02:47:55.241Z,"    0"
2018-04-06T02:52:55.445Z,"    0"
2018-04-06T02:57:51.370Z,"    0"
2018-04-06T03:02:50.945Z,"    0"
2018-04-06T03:07:47.646Z,"    0"
2018-04-06T03:12:47.279Z,"    0"
2018-04-06T03:17:46.252Z,"    0"
2018-04-06T03:22:41.127Z,"    0"
2018-04-06T03:27:41.621Z,"    0"
2018-04-06T03:32:40.487Z,"    0"
2018-04-06T03:37:35.237Z,"    0"
2018-04-06T03:42:35.010Z,"    0"
2018-04-06T03:47:30.084Z,"    0"
2018-04-06T03:52:30.403Z,"    0"
2018-04-06T03:57:29.986Z,"    0"
2018-04-06T04:02:29.607Z,"    0"
2018-04-06T04:07:29.763Z,"    0"
2018-04-06T04:12:29.308Z,"    0"
2018-04-06T04:17:27.685Z,"    0"
2018-04-06T04:22:22.373Z,"    0"
2018-04-06T04:27:23.006Z,"    0"
2018-04-06T04:32:18.344Z,"    0"
2018-04-06T04:37:14.545Z,"    0"
2018-04-06T04:42:13.873Z,"    0"
2018-04-06T04:47:13.918Z,"    0"
2018-04-06T04:52:13.639Z,"    5"
2018-04-06T04:57:09.416Z,"   10"
2018-04-06T05:02:08.798Z,"   15"
2018-04-06T05:07:04.555Z,"   20"
2018-04-06T05:12:00.000Z,"   25"
2018-04-06T05:16:59.619Z,"   30"
2018-04-06T05:21:58.365Z,"   35"
2018-04-06T05:26:57.938Z,"   45"
2018-04-06T05:31:52.674Z,"   50"
2018-04-06T05:36:48.597Z,"   55"
2018-04-06T05:41:44.953Z,"   80"
2018-04-06T05:46:40.218Z,"  110"
2018-04-06T05:51:41.941Z,"  115"
2018-04-06T05:56:36.499Z,"  105"
2018-04-06T06:01:36.442Z,"  155"
2018-04-06T06:06:31.948Z,"  100"
2018-04-06T06:11:32.792Z,"   95"
2018-04-06T06:16:27.737Z,"  135"
2018-04-06T06:21:23.728Z,"  100"
2018-04-06T06:26:20.246Z,"  100"
2018-04-06T06:31:20.523Z,"  220"
2018-04-06T06:36:19.893Z,"  270"
2018-04-06T06:41:20.048Z,"  180"
2018-04-06T06:46:19.007Z,"  155"
2018-04-06T06:51:19.106Z,"  185"
2018-04-06T06:56:19.259Z,"  275"
2018-04-06T07:01:19.110Z,"  335"
2018-04-06T07:06:14.346Z,"  420"
2018-04-06T07:11:11.209Z,"  285"
2018-04-06T07:16:10.875Z,"  380"
2018-04-06T07:21:10.627Z,"  345"
2018-04-06T07:26:07.243Z,"  320"
2018-04-06T07:31:04.369Z,"  220"
2018-04-06T07:36:01.225Z,"  400"
2018-04-06T07:41:02.340Z,"  470"
2018-04-06T07:45:59.122Z,"  415"
2018-04-06T07:51:00.037Z,"  485"
2018-04-06T07:55:57.250Z,"  520"
2018-04-06T08:00:59.888Z,"  465"
2018-04-06T08:05:56.496Z,"  430"
2018-04-06T08:10:58.530Z,"  365"
2018-04-06T08:16:02.920Z,"  530"
2018-04-06T08:21:01.635Z,"  925"
2018-04-06T08:25:58.488Z,"  595"
2018-04-06T08:30:56.207Z,"  535"
2018-04-06T08:35:54.132Z,"  550"
2018-04-06T08:40:53.716Z,"  365"
2018-04-06T08:45:53.747Z,"  405"
2018-04-06T08:50:53.769Z,"  570"
2018-04-06T08:55:51.631Z,"  310"
2018-04-06T09:00:46.601Z,"  445"
2018-04-06T09:05:48.971Z,"  280"
2018-04-06T09:10:47.865Z,"  255"
2018-04-06T09:15:43.778Z,"  250"
2018-04-06T09:20:43.315Z,"  305"
2018-04-06T09:25:39.503Z,"  445"
2018-04-06T09:35:43.106Z,"  670"
2018-04-06T09:40:42.770Z,"  345"
2018-04-06T09:45:44.038Z,"  785"
2018-04-06T09:50:40.086Z,"  460"
2018-04-06T09:55:40.919Z,"  675"
2018-04-06T10:00:37.046Z,"  630"
2018-04-06T10:05:33.709Z,"  480"
2018-04-06T10:10:29.769Z,"  845"
2018-04-06T10:15:33.492Z," 1035"
2018-04-06T10:20:31.281Z," 1295"
2018-04-06T10:25:33.422Z," 1420"
2018-04-06T10:30:28.986Z," 1395"
2018-04-06T10:35:26.543Z," 1155"
2018-04-06T10:40:23.549Z," 1220"
2018-04-06T10:45:24.364Z," 1385"
2018-04-06T10:50:19.854Z," 1420"
2018-04-06T10:55:19.996Z," 1575"
2018-04-06T11:00:15.196Z," 1535"
2018-04-06T11:05:11.570Z," 1490"
2018-04-06T11:10:09.314Z," 1595"
2018-04-06T11:15:10.401Z," 1535"
2018-04-06T11:20:10.914Z," 1495"
2018-04-06T11:25:10.238Z," 1635"
2018-04-06T11:30:11.704Z," 1525"
2018-04-06T11:35:13.415Z," 1570"
2018-04-06T11:40:15.162Z," 1485"
2018-04-06T11:45:16.456Z," 1635"
2018-04-06T11:50:11.501Z," 1635"
2018-04-06T11:55:12.418Z," 1520"
2018-04-06T12:00:07.946Z," 1685"
2018-04-06T12:05:09.414Z," 1360"
2018-04-06T12:10:09.216Z," 1120"
2018-04-06T12:15:08.947Z," 1575"
2018-04-06T12:20:07.886Z," 1210"
2018-04-06T12:25:03.896Z," 1640"
2018-04-06T12:30:03.716Z," 1360"
2018-04-06T12:34:58.358Z," 1065"
2018-04-06T12:39:53.493Z,"  380"
2018-04-06T12:44:52.166Z,"  775"
2018-04-06T12:49:47.809Z," 1030"
2018-04-06T12:54:44.954Z," 1360"
2018-04-06T12:59:45.027Z,"  775"
2018-04-06T13:04:43.310Z,"  645"
2018-04-06T13:09:41.934Z,"  715"
2018-04-06T13:14:42.754Z,"  685"
2018-04-06T13:19:42.251Z,"  635"
2018-04-06T13:24:42.219Z,"  920"
2018-04-06T13:29:44.431Z,"  680"
2018-04-06T13:34:44.996Z," 1225"
2018-04-06T13:39:45.211Z,"  315"
2018-04-06T13:44:45.443Z,"  400"
2018-04-06T13:49:40.691Z,"  275"
2018-04-06T13:54:40.917Z,"  690"
2018-04-06T13:59:34.833Z,"  140"
2018-04-06T14:04:30.264Z,"  335"
2018-04-06T14:09:26.316Z,"  360"
2018-04-06T14:14:23.917Z," 1060"
2018-04-06T14:19:24.670Z,"  395"
2018-04-06T14:24:23.681Z,"  770"
2018-04-06T14:29:19.588Z,"  550"
2018-04-06T14:34:21.169Z,"  720"
2018-04-06T14:39:16.066Z,"  325"
2018-04-06T14:44:13.205Z,"  160"
2018-04-06T14:49:13.055Z,"  150"
2018-04-06T14:54:09.349Z,"  145"
2018-04-06T14:59:09.422Z,"  140"
2018-04-06T15:04:08.485Z,"  125"
2018-04-06T15:09:03.987Z,"  120"
2018-04-06T15:14:00.804Z,"  130"
2018-04-06T15:19:00.483Z,"  130"
2018-04-06T15:23:59.923Z,"  125"
2018-04-06T15:28:54.544Z,"  115"
2018-04-06T15:33:54.462Z,"  110"
2018-04-06T15:38:49.452Z,"  110"
2018-04-06T15:48:45.270Z,"  100"
2018-04-06T15:53:45.971Z,"  100"
2018-04-06T15:58:45.653Z,"   95"
2018-04-06T16:03:41.558Z,"   90"
2018-04-06T16:08:38.082Z,"   90"
2018-04-06T16:13:34.973Z,"   90"
2018-04-06T16:18:35.141Z,"   90"
2018-04-06T16:23:34.900Z,"   90"
2018-04-06T16:28:34.111Z,"   85"
2018-04-06T16:33:29.692Z,"   85"
2018-04-06T16:38:25.375Z,"   75"
2018-04-06T16:43:21.184Z,"   70"
2018-04-06T16:48:17.967Z,"   65"
2018-04-06T16:53:18.791Z,"   60"
2018-04-06T16:58:13.222Z,"   55"
2018-04-06T17:03:13.817Z,"   45"
2018-04-06T17:08:08.464Z,"   45"
2018-04-06T17:13:04.348Z,"   40"
2018-04-06T17:18:01.302Z,"   35"
2018-04-06T17:22:56.544Z,"   35"
2018-04-06T17:27:52.460Z,"   30"
2018-04-06T17:32:49.686Z,"   25"
2018-04-06T17:37:45.099Z,"   25"
2018-04-06T17:42:40.792Z,"   20"
2018-04-06T17:47:40.551Z,"   15"
2018-04-06T17:52:36.429Z,"   15"
2018-04-06T17:57:33.647Z,"   10"
2018-04-06T18:02:30.229Z,"    5"
2018-04-06T18:07:29.570Z,"    5"
2018-04-06T18:12:25.095Z,"    0"
2018-04-06T18:17:25.590Z,"    0"
2018-04-06T18:22:21.615Z,"    0"
2018-04-06T18:27:20.830Z,"    0"
2018-04-06T18:32:20.894Z,"    0"
2018-04-06T18:37:15.555Z,"    0"
2018-04-06T18:42:16.597Z,"    0"
2018-04-06T18:47:12.431Z,"    0"
2018-04-06T18:52:08.573Z,"    0"
2018-04-06T18:57:05.183Z,"    0"
2018-04-06T19:02:04.792Z,"    0"
2018-04-06T19:07:01.847Z,"    0"
2018-04-06T19:12:02.208Z,"    0"
2018-04-06T19:17:01.390Z,"    0"
2018-04-06T19:22:00.108Z,"    0"
2018-04-06T19:32:00.494Z,"    0"
2018-04-06T19:36:56.509Z,"    0"
2018-04-06T19:41:56.323Z,"    0"
2018-04-06T19:46:55.272Z,"    0"
2018-04-06T19:51:51.910Z,"    0"
2018-04-06T19:56:47.560Z,"    0"
2018-04-06T20:01:49.473Z,"    0"
2018-04-06T20:06:43.878Z,"    0"
2018-04-06T20:11:39.366Z,"    0"
2018-04-06T20:16:39.100Z,"    0"
2018-04-06T20:21:38.052Z,"    0"
2018-04-06T20:26:37.035Z,"    0"
2018-04-06T20:31:31.452Z,"    0"
2018-04-06T20:36:32.420Z,"    0"
2018-04-06T20:41:27.267Z,"    0"
2018-04-06T20:46:26.854Z,"    0"
2018-04-06T20:51:21.750Z,"    0"
2018-04-06T20:56:21.532Z,"    0"
2018-04-06T21:01:17.621Z,"    0"
2018-04-06T21:06:13.196Z,"    0"
2018-04-06T21:11:13.235Z,"    0"
2018-04-06T21:16:08.036Z,"    0"
2018-04-06T21:21:07.906Z,"    0"
2018-04-06T21:26:03.108Z,"    0"
2018-04-06T21:30:59.520Z,"    0"
2018-04-06T21:35:56.336Z,"    0"
2018-04-06T21:40:56.950Z,"    0"
2018-04-06T21:45:52.853Z,"    0"
2018-04-06T21:50:48.202Z,"    0"
2018-04-06T21:55:43.989Z,"    0"
2018-04-06T22:00:40.560Z,"    0"
2018-04-06T22:05:37.338Z,"    0"
2018-04-06T22:10:33.481Z,"    0"
2018-04-06T22:15:34.411Z,"    0"
2018-04-06T22:20:29.028Z,"    0"
2018-04-06T22:25:24.831Z,"    0"
2018-04-06T22:30:24.352Z,"    0"
2018-04-06T22:35:19.293Z,"    0"
2018-04-06T22:40:19.008Z,"    0"
2018-04-06T22:45:17.811Z,"    0"
2018-04-06T22:50:17.657Z,"    0"
2018-04-06T22:55:16.640Z,"    0"
2018-04-06T23:00:15.598Z,"    0"
2018-04-06T23:05:14.990Z,"    0"
2018-04-06T23:10:10.632Z,"    0"
2018-04-06T23:15:09.974Z,"    0"
2018-04-06T23:20:06.467Z,"    0"
2018-04-06T23:25:05.868Z,"    0"
2018-04-06T23:30:01.763Z,"    0"
2018-04-06T23:34:58.229Z,"    0"
2018-04-06T23:39:58.294Z,"    0"
2018-04-06T23:44:53.369Z,"    0"
2018-04-06T23:49:50.717Z,"    0"
2018-04-06T23:54:49.992Z,"    0"
2018-04-06T23:59:49.598Z,"    0"
